<?xml version="1.0" encoding="UTF-8"?>
<gpx version="1.0" creator="Trackator" xmlns:xsi="http://www.w3.org/2001/XMLSchema-instance" xmlns="http://www.topografix.com/GPX/1/0" xmlns:topografix="http://www.topografix.com/GPX/Private/TopoGrafix/0/1" xsi:schemaLocation="http://www.topografix.com/GPX/1/0 http://www.topografix.com/GPX/1/0/gpx.xsd http://www.topografix.com/GPX/Private/TopoGrafix/0/1 http://www.topografix.com/GPX/Private/TopoGrafix/0/1/topografix.xsd">
<metadata>
<link href="http://www.trackator.com">
<text>Trackator</text>
</link>
</metadata>
<time>2015-06-04T:46:41Z</time>
<trk>
<name>Track: </name>
<desc>Running</desc>
<trkseg>
<trkpt lat="53.3514617" lon="18.43044033">
<ele>85</ele>
<time>2015-06-04T:46:41Z</time>
</trkpt>
<trkpt lat="53.35147726" lon="18.43038253">
<ele>85</ele>
<time>2015-06-04T17:46:43Z</time>
</trkpt>
<trkpt lat="53.35139229" lon="18.4305149">
<ele>86</ele>
<time>2015-06-04T17:46:47Z</time>
</trkpt>
<trkpt lat="53.35133799" lon="18.4305996">
<ele>87</ele>
<time>2015-06-04T17:46:51Z</time>
</trkpt>
<trkpt lat="53.35130566" lon="18.43064358">
<ele>88</ele>
<time>2015-06-04T17:46:53Z</time>
</trkpt>
<trkpt lat="53.35126666" lon="18.4306948">
<ele>89</ele>
<time>2015-06-04T17:46:55Z</time>
</trkpt>
<trkpt lat="53.3512211" lon="18.43071544">
<ele>90</ele>
<time>2015-06-04T17:46:57Z</time>
</trkpt>
<trkpt lat="53.35118893" lon="18.4307212">
<ele>90</ele>
<time>2015-06-04T17:46:59Z</time>
</trkpt>
<trkpt lat="53.35115915" lon="18.4307042">
<ele>92</ele>
<time>2015-06-04T17:47:01Z</time>
</trkpt>
<trkpt lat="53.35113714" lon="18.43070459">
<ele>92</ele>
<time>2015-06-04T17:47:03Z</time>
</trkpt>
<trkpt lat="53.35111969" lon="18.43072507">
<ele>91</ele>
<time>2015-06-04T17:47:05Z</time>
</trkpt>
<trkpt lat="53.35109852" lon="18.43072884">
<ele>92</ele>
<time>2015-06-04T17:47:07Z</time>
</trkpt>
<trkpt lat="53.35108076" lon="18.43074407">
<ele>91</ele>
<time>2015-06-04T17:47:09Z</time>
</trkpt>
<trkpt lat="53.35106571" lon="18.43076704">
<ele>91</ele>
<time>2015-06-04T17:47:11Z</time>
</trkpt>
<trkpt lat="53.35104724" lon="18.43075381">
<ele>93</ele>
<time>2015-06-04T17:47:13Z</time>
</trkpt>
<trkpt lat="53.35102756" lon="18.4307448">
<ele>91</ele>
<time>2015-06-04T17:47:15Z</time>
</trkpt>
<trkpt lat="53.3510038" lon="18.43073823">
<ele>94</ele>
<time>2015-06-04T17:47:17Z</time>
</trkpt>
<trkpt lat="53.35097911" lon="18.43073408">
<ele>94</ele>
<time>2015-06-04T17:47:19Z</time>
</trkpt>
<trkpt lat="53.35097024" lon="18.4307339">
<ele>87</ele>
<time>2015-06-04T17:47:21Z</time>
</trkpt>
<trkpt lat="53.35096051" lon="18.43077282">
<ele>88</ele>
<time>2015-06-04T17:47:23Z</time>
</trkpt>
<trkpt lat="53.35094511" lon="18.43082147">
<ele>89</ele>
<time>2015-06-04T17:47:25Z</time>
</trkpt>
<trkpt lat="53.3509231" lon="18.43087255">
<ele>91</ele>
<time>2015-06-04T17:47:27Z</time>
</trkpt>
<trkpt lat="53.35091502" lon="18.43091307">
<ele>92</ele>
<time>2015-06-04T17:47:29Z</time>
</trkpt>
<trkpt lat="53.35093193" lon="18.43093655">
<ele>95</ele>
<time>2015-06-04T17:47:31Z</time>
</trkpt>
<trkpt lat="53.35094882" lon="18.43094983">
<ele>97</ele>
<time>2015-06-04T17:47:33Z</time>
</trkpt>
<trkpt lat="53.3509412" lon="18.43096255">
<ele>97</ele>
<time>2015-06-04T17:47:35Z</time>
</trkpt>
<trkpt lat="53.35091505" lon="18.43097135">
<ele>97</ele>
<time>2015-06-04T17:47:37Z</time>
</trkpt>
<trkpt lat="53.35090989" lon="18.43099894">
<ele>96</ele>
<time>2015-06-04T17:47:39Z</time>
</trkpt>
<trkpt lat="53.35091107" lon="18.43103517">
<ele>100</ele>
<time>2015-06-04T17:47:41Z</time>
</trkpt>
<trkpt lat="53.35091064" lon="18.43106552">
<ele>102</ele>
<time>2015-06-04T17:47:43Z</time>
</trkpt>
<trkpt lat="53.35088692" lon="18.43114107">
<ele>99</ele>
<time>2015-06-04T17:47:45Z</time>
</trkpt>
<trkpt lat="53.35084666" lon="18.43123491">
<ele>99</ele>
<time>2015-06-04T17:47:47Z</time>
</trkpt>
<trkpt lat="53.35080407" lon="18.43132196">
<ele>100</ele>
<time>2015-06-04T17:47:49Z</time>
</trkpt>
<trkpt lat="53.3507837" lon="18.43138442">
<ele>99</ele>
<time>2015-06-04T17:47:51Z</time>
</trkpt>
<trkpt lat="53.35076732" lon="18.43142559">
<ele>99</ele>
<time>2015-06-04T17:47:53Z</time>
</trkpt>
<trkpt lat="53.35074429" lon="18.43147104">
<ele>96</ele>
<time>2015-06-04T17:47:55Z</time>
</trkpt>
<trkpt lat="53.3507162" lon="18.43151246">
<ele>99</ele>
<time>2015-06-04T17:47:57Z</time>
</trkpt>
<trkpt lat="53.35071661" lon="18.43154088">
<ele>96</ele>
<time>2015-06-04T17:47:59Z</time>
</trkpt>
<trkpt lat="53.35072195" lon="18.43158169">
<ele>98</ele>
<time>2015-06-04T17:48:01Z</time>
</trkpt>
<trkpt lat="53.35071871" lon="18.43163575">
<ele>98</ele>
<time>2015-06-04T17:48:03Z</time>
</trkpt>
<trkpt lat="53.35070241" lon="18.43169195">
<ele>97</ele>
<time>2015-06-04T17:48:05Z</time>
</trkpt>
<trkpt lat="53.35068067" lon="18.43178689">
<ele>100</ele>
<time>2015-06-04T17:48:07Z</time>
</trkpt>
<trkpt lat="53.35065955" lon="18.43187673">
<ele>98</ele>
<time>2015-06-04T17:48:09Z</time>
</trkpt>
<trkpt lat="53.35064433" lon="18.4319519">
<ele>93</ele>
<time>2015-06-04T17:48:11Z</time>
</trkpt>
<trkpt lat="53.35062871" lon="18.43202202">
<ele>97</ele>
<time>2015-06-04T17:48:13Z</time>
</trkpt>
<trkpt lat="53.35061891" lon="18.43206162">
<ele>100</ele>
<time>2015-06-04T17:48:15Z</time>
</trkpt>
<trkpt lat="53.35061528" lon="18.43209647">
<ele>97</ele>
<time>2015-06-04T17:48:17Z</time>
</trkpt>
<trkpt lat="53.35061367" lon="18.43216328">
<ele>99</ele>
<time>2015-06-04T17:48:19Z</time>
</trkpt>
<trkpt lat="53.3506187" lon="18.4322212">
<ele>99</ele>
<time>2015-06-04T17:48:21Z</time>
</trkpt>
<trkpt lat="53.35062167" lon="18.43226847">
<ele>99</ele>
<time>2015-06-04T17:48:23Z</time>
</trkpt>
<trkpt lat="53.35063141" lon="18.43232188">
<ele>98</ele>
<time>2015-06-04T17:48:25Z</time>
</trkpt>
<trkpt lat="53.35063431" lon="18.43235927">
<ele>98</ele>
<time>2015-06-04T17:48:27Z</time>
</trkpt>
<trkpt lat="53.35062446" lon="18.43240191">
<ele>96</ele>
<time>2015-06-04T17:48:29Z</time>
</trkpt>
<trkpt lat="53.35061534" lon="18.43243189">
<ele>95</ele>
<time>2015-06-04T17:48:31Z</time>
</trkpt>
<trkpt lat="53.350617" lon="18.43246654">
<ele>95</ele>
<time>2015-06-04T17:48:33Z</time>
</trkpt>
<trkpt lat="53.35061236" lon="18.43249373">
<ele>93</ele>
<time>2015-06-04T17:48:35Z</time>
</trkpt>
<trkpt lat="53.3506003" lon="18.43253019">
<ele>96</ele>
<time>2015-06-04T17:48:37Z</time>
</trkpt>
<trkpt lat="53.35058638" lon="18.43259356">
<ele>99</ele>
<time>2015-06-04T17:48:39Z</time>
</trkpt>
<trkpt lat="53.35056603" lon="18.43265904">
<ele>98</ele>
<time>2015-06-04T17:48:41Z</time>
</trkpt>
<trkpt lat="53.350551" lon="18.43272563">
<ele>100</ele>
<time>2015-06-04T17:48:43Z</time>
</trkpt>
<trkpt lat="53.35052916" lon="18.43279444">
<ele>101</ele>
<time>2015-06-04T17:48:45Z</time>
</trkpt>
<trkpt lat="53.35051482" lon="18.43284516">
<ele>101</ele>
<time>2015-06-04T17:48:47Z</time>
</trkpt>
<trkpt lat="53.35049425" lon="18.43291326">
<ele>99</ele>
<time>2015-06-04T17:48:49Z</time>
</trkpt>
<trkpt lat="53.35048434" lon="18.43299307">
<ele>100</ele>
<time>2015-06-04T17:48:51Z</time>
</trkpt>
<trkpt lat="53.35047286" lon="18.43307756">
<ele>100</ele>
<time>2015-06-04T17:48:53Z</time>
</trkpt>
<trkpt lat="53.35045222" lon="18.43314388">
<ele>96</ele>
<time>2015-06-04T17:48:55Z</time>
</trkpt>
<trkpt lat="53.35044552" lon="18.43317134">
<ele>95</ele>
<time>2015-06-04T17:48:57Z</time>
</trkpt>
<trkpt lat="53.35043247" lon="18.43319935">
<ele>96</ele>
<time>2015-06-04T17:48:59Z</time>
</trkpt>
<trkpt lat="53.35041564" lon="18.43323897">
<ele>91</ele>
<time>2015-06-04T17:49:01Z</time>
</trkpt>
<trkpt lat="53.35035943" lon="18.43335556">
<ele>92</ele>
<time>2015-06-04T17:49:05Z</time>
</trkpt>
<trkpt lat="53.35034229" lon="18.43339632">
<ele>91</ele>
<time>2015-06-04T17:49:07Z</time>
</trkpt>
<trkpt lat="53.35032683" lon="18.43343937">
<ele>92</ele>
<time>2015-06-04T17:49:09Z</time>
</trkpt>
<trkpt lat="53.3503138" lon="18.43348159">
<ele>92</ele>
<time>2015-06-04T17:49:11Z</time>
</trkpt>
<trkpt lat="53.35029852" lon="18.4335216">
<ele>92</ele>
<time>2015-06-04T17:49:13Z</time>
</trkpt>
<trkpt lat="53.3502748" lon="18.43359305">
<ele>93</ele>
<time>2015-06-04T17:49:17Z</time>
</trkpt>
<trkpt lat="53.35026081" lon="18.43364697">
<ele>94</ele>
<time>2015-06-04T17:49:19Z</time>
</trkpt>
<trkpt lat="53.35024684" lon="18.43369587">
<ele>95</ele>
<time>2015-06-04T17:49:21Z</time>
</trkpt>
<trkpt lat="53.3502257" lon="18.43382056">
<ele>95</ele>
<time>2015-06-04T17:49:25Z</time>
</trkpt>
<trkpt lat="53.35022628" lon="18.43391074">
<ele>99</ele>
<time>2015-06-04T17:49:29Z</time>
</trkpt>
<trkpt lat="53.35022382" lon="18.43395322">
<ele>100</ele>
<time>2015-06-04T17:49:31Z</time>
</trkpt>
<trkpt lat="53.35019932" lon="18.43405916">
<ele>101</ele>
<time>2015-06-04T17:49:35Z</time>
</trkpt>
<trkpt lat="53.35005965" lon="18.43446119">
<ele>98</ele>
<time>2015-06-04T17:49:49Z</time>
</trkpt>
<trkpt lat="53.35002292" lon="18.43454329">
<ele>101</ele>
<time>2015-06-04T17:49:53Z</time>
</trkpt>
<trkpt lat="53.35000808" lon="18.43459398">
<ele>101</ele>
<time>2015-06-04T17:49:55Z</time>
</trkpt>
<trkpt lat="53.34999832" lon="18.4346571">
<ele>101</ele>
<time>2015-06-04T17:49:57Z</time>
</trkpt>
<trkpt lat="53.34997174" lon="18.43478952">
<ele>100</ele>
<time>2015-06-04T17:50:01Z</time>
</trkpt>
<trkpt lat="53.34995629" lon="18.43492349">
<ele>95</ele>
<time>2015-06-04T17:50:05Z</time>
</trkpt>
<trkpt lat="53.34995271" lon="18.43500124">
<ele>94</ele>
<time>2015-06-04T17:50:07Z</time>
</trkpt>
<trkpt lat="53.34994758" lon="18.4350807">
<ele>95</ele>
<time>2015-06-04T17:50:09Z</time>
</trkpt>
<trkpt lat="53.34993878" lon="18.43515224">
<ele>95</ele>
<time>2015-06-04T17:50:11Z</time>
</trkpt>
<trkpt lat="53.34993335" lon="18.43520496">
<ele>96</ele>
<time>2015-06-04T17:50:13Z</time>
</trkpt>
<trkpt lat="53.34993308" lon="18.43526391">
<ele>92</ele>
<time>2015-06-04T17:50:15Z</time>
</trkpt>
<trkpt lat="53.3499388" lon="18.43533735">
<ele>89</ele>
<time>2015-06-04T17:50:17Z</time>
</trkpt>
<trkpt lat="53.34991604" lon="18.43544774">
<ele>87</ele>
<time>2015-06-04T17:50:21Z</time>
</trkpt>
<trkpt lat="53.34985816" lon="18.4355771">
<ele>88</ele>
<time>2015-06-04T17:50:27Z</time>
</trkpt>
<trkpt lat="53.34984245" lon="18.43561491">
<ele>89</ele>
<time>2015-06-04T17:50:29Z</time>
</trkpt>
<trkpt lat="53.34981119" lon="18.43570741">
<ele>90</ele>
<time>2015-06-04T17:50:33Z</time>
</trkpt>
<trkpt lat="53.34977309" lon="18.43581877">
<ele>90</ele>
<time>2015-06-04T17:50:37Z</time>
</trkpt>
<trkpt lat="53.34972645" lon="18.43593252">
<ele>97</ele>
<time>2015-06-04T17:50:41Z</time>
</trkpt>
<trkpt lat="53.3497103" lon="18.43598784">
<ele>97</ele>
<time>2015-06-04T17:50:43Z</time>
</trkpt>
<trkpt lat="53.34968066" lon="18.43608964">
<ele>96</ele>
<time>2015-06-04T17:50:47Z</time>
</trkpt>
<trkpt lat="53.34966769" lon="18.43614394">
<ele>101</ele>
<time>2015-06-04T17:50:49Z</time>
</trkpt>
<trkpt lat="53.34965169" lon="18.4361975">
<ele>100</ele>
<time>2015-06-04T17:50:51Z</time>
</trkpt>
<trkpt lat="53.34961646" lon="18.43630384">
<ele>101</ele>
<time>2015-06-04T17:50:55Z</time>
</trkpt>
<trkpt lat="53.34959485" lon="18.43641708">
<ele>101</ele>
<time>2015-06-04T17:50:59Z</time>
</trkpt>
<trkpt lat="53.34958152" lon="18.43647119">
<ele>101</ele>
<time>2015-06-04T17:51:01Z</time>
</trkpt>
<trkpt lat="53.349553" lon="18.43657725">
<ele>99</ele>
<time>2015-06-04T17:51:05Z</time>
</trkpt>
<trkpt lat="53.34953906" lon="18.43662888">
<ele>98</ele>
<time>2015-06-04T17:51:07Z</time>
</trkpt>
<trkpt lat="53.34952799" lon="18.43667905">
<ele>98</ele>
<time>2015-06-04T17:51:09Z</time>
</trkpt>
<trkpt lat="53.34952519" lon="18.43673119">
<ele>97</ele>
<time>2015-06-04T17:51:11Z</time>
</trkpt>
<trkpt lat="53.3495129" lon="18.43678306">
<ele>98</ele>
<time>2015-06-04T17:51:13Z</time>
</trkpt>
<trkpt lat="53.34949849" lon="18.43683252">
<ele>96</ele>
<time>2015-06-04T17:51:15Z</time>
</trkpt>
<trkpt lat="53.34948633" lon="18.4368849">
<ele>96</ele>
<time>2015-06-04T17:51:17Z</time>
</trkpt>
<trkpt lat="53.3494732" lon="18.43693835">
<ele>96</ele>
<time>2015-06-04T17:51:19Z</time>
</trkpt>
<trkpt lat="53.34945549" lon="18.43698631">
<ele>96</ele>
<time>2015-06-04T17:51:21Z</time>
</trkpt>
<trkpt lat="53.34940965" lon="18.43707777">
<ele>98</ele>
<time>2015-06-04T17:51:25Z</time>
</trkpt>
<trkpt lat="53.34941497" lon="18.43718279">
<ele>96</ele>
<time>2015-06-04T17:51:29Z</time>
</trkpt>
<trkpt lat="53.34942129" lon="18.43726878">
<ele>95</ele>
<time>2015-06-04T17:51:33Z</time>
</trkpt>
<trkpt lat="53.3494131" lon="18.43731246">
<ele>97</ele>
<time>2015-06-04T17:51:35Z</time>
</trkpt>
<trkpt lat="53.34938056" lon="18.4374059">
<ele>101</ele>
<time>2015-06-04T17:51:39Z</time>
</trkpt>
<trkpt lat="53.34933529" lon="18.43750641">
<ele>97</ele>
<time>2015-06-04T17:51:43Z</time>
</trkpt>
<trkpt lat="53.3492806" lon="18.43766114">
<ele>99</ele>
<time>2015-06-04T17:51:49Z</time>
</trkpt>
<trkpt lat="53.3492678" lon="18.43771196">
<ele>98</ele>
<time>2015-06-04T17:51:51Z</time>
</trkpt>
<trkpt lat="53.34925729" lon="18.43776387">
<ele>96</ele>
<time>2015-06-04T17:51:53Z</time>
</trkpt>
<trkpt lat="53.34924295" lon="18.43781401">
<ele>95</ele>
<time>2015-06-04T17:51:55Z</time>
</trkpt>
<trkpt lat="53.34922827" lon="18.43786263">
<ele>94</ele>
<time>2015-06-04T17:51:57Z</time>
</trkpt>
<trkpt lat="53.34921908" lon="18.43791576">
<ele>92</ele>
<time>2015-06-04T17:51:59Z</time>
</trkpt>
<trkpt lat="53.34921264" lon="18.43797206">
<ele>91</ele>
<time>2015-06-04T17:52:01Z</time>
</trkpt>
<trkpt lat="53.34920033" lon="18.43802409">
<ele>92</ele>
<time>2015-06-04T17:52:03Z</time>
</trkpt>
<trkpt lat="53.34918822" lon="18.43807884">
<ele>90</ele>
<time>2015-06-04T17:52:05Z</time>
</trkpt>
<trkpt lat="53.34918089" lon="18.43812428">
<ele>92</ele>
<time>2015-06-04T17:52:07Z</time>
</trkpt>
<trkpt lat="53.34917373" lon="18.43817429">
<ele>90</ele>
<time>2015-06-04T17:52:09Z</time>
</trkpt>
<trkpt lat="53.34915876" lon="18.4382311">
<ele>92</ele>
<time>2015-06-04T17:52:11Z</time>
</trkpt>
<trkpt lat="53.34914565" lon="18.43828448">
<ele>95</ele>
<time>2015-06-04T17:52:13Z</time>
</trkpt>
<trkpt lat="53.34913175" lon="18.43833317">
<ele>95</ele>
<time>2015-06-04T17:52:15Z</time>
</trkpt>
<trkpt lat="53.34911667" lon="18.43838297">
<ele>94</ele>
<time>2015-06-04T17:52:17Z</time>
</trkpt>
<trkpt lat="53.34909523" lon="18.43842898">
<ele>95</ele>
<time>2015-06-04T17:52:19Z</time>
</trkpt>
<trkpt lat="53.34907581" lon="18.4384711">
<ele>92</ele>
<time>2015-06-04T17:52:21Z</time>
</trkpt>
<trkpt lat="53.3490548" lon="18.43850307">
<ele>95</ele>
<time>2015-06-04T17:52:23Z</time>
</trkpt>
<trkpt lat="53.34903498" lon="18.43852919">
<ele>94</ele>
<time>2015-06-04T17:52:25Z</time>
</trkpt>
<trkpt lat="53.34902142" lon="18.43856152">
<ele>89</ele>
<time>2015-06-04T17:52:27Z</time>
</trkpt>
<trkpt lat="53.34900421" lon="18.43858215">
<ele>89</ele>
<time>2015-06-04T17:52:29Z</time>
</trkpt>
<trkpt lat="53.3489943" lon="18.43858196">
<ele>91</ele>
<time>2015-06-04T17:52:31Z</time>
</trkpt>
<trkpt lat="53.34898704" lon="18.4385692">
<ele>91</ele>
<time>2015-06-04T17:52:33Z</time>
</trkpt>
<trkpt lat="53.34898218" lon="18.43855248">
<ele>91</ele>
<time>2015-06-04T17:52:35Z</time>
</trkpt>
<trkpt lat="53.34897651" lon="18.43852739">
<ele>90</ele>
<time>2015-06-04T17:52:37Z</time>
</trkpt>
<trkpt lat="53.34897403" lon="18.43851207">
<ele>91</ele>
<time>2015-06-04T17:52:39Z</time>
</trkpt>
<trkpt lat="" lon="">
<ele></ele>
<time>2015-06-04TZ</time>
</trkpt>
</trkseg>
</trk>
<wpt lat="" lon="">
	<name></name>
	<desc></desc>
	<cmt></cmt>
	<photoid></photoid>
	<type></type>
</wpt>
</gpx>
